Main page
METAR-TAF:

METAR-TAF

Airports :

Montevideo–Chippewa County Airport

Montevideo, Minnesota, United States

latitude: 44-58N, longitude: 095-43W, elevation: 1033 ft

Current weather observation

The report was made 16 minutes ago, at 23:35 UTC
Wind 8 mph from the North
Temperature 97°F
Humidity 22%
Pressure 29.72 in. Hg
Visibility: 10 miles
Clear sky

METAR: KMVE 012335Z AUTO 35007KT 10SM CLR 36/11 A2972 RMK AO2

Time: 18:51 (23:51 UTC)


TAF: missing

Weather observations and forecasts of more than 4000 airports (METAR and TAF reports).

The available stations are represented by yellow and red dots on the map.

Hover mouse over dot to see the name of the station.

Then click to see weather observations and forecasts.

To change the map : click on the green buttons with a black cross to zoom in, on the green button with a dash to zoom out, or on the green arrows for adjacent maps.


METAR-TAF: